Time;durP1;ratioP1;P1;durP2;ratioP2;P2;SDS_P1;SDS_P2;PMS_P1;PMS_P2;Temp;Humidity;BMP_temperature;BMP_pressure;BME280_temperature;BME280_humidity;BME280_pressure;Samples;Min_cycle;Max_cycle;Signal;HPM_P1;HPM_P2
2022/08/31 00:04:59;;;;;;;2.67;2.47;;;26.90;48.30;;;;;;5127322;27;45224;-70
2022/08/31 00:07:27;;;;;;;2.58;2.38;;;26.90;48.30;;;;;;5129998;27;45407;-70
2022/08/31 00:09:53;;;;;;;2.45;2.15;;;26.90;48.30;;;;;;5129565;27;46630;-70
2022/08/31 00:12:21;;;;;;;3.00;2.22;;;26.90;48.40;;;;;;5129745;27;45291;-70
2022/08/31 00:14:49;;;;;;;2.38;2.22;;;26.80;48.30;;;;;;5129742;27;45322;-70
2022/08/31 00:17:16;;;;;;;2.85;2.45;;;26.80;48.40;;;;;;5130023;27;45367;-70
2022/08/31 00:19:42;;;;;;;2.25;2.05;;;26.80;48.40;;;;;;5158836;27;45273;-70
2022/08/31 00:22:09;;;;;;;2.58;2.28;;;26.80;48.40;;;;;;5171375;27;45252;-70
2022/08/31 00:24:36;;;;;;;2.60;2.40;;;26.80;48.40;;;;;;5171679;27;45275;-70
2022/08/31 00:27:03;;;;;;;3.10;2.25;;;26.80;48.50;;;;;;5171747;27;45465;-70
2022/08/31 00:29:30;;;;;;;3.20;2.65;;;26.80;48.40;;;;;;5171284;27;45289;-70
2022/08/31 00:31:58;;;;;;;2.38;2.17;;;26.70;48.50;;;;;;5150449;27;45217;-70
2022/08/31 00:34:26;;;;;;;2.05;1.95;;;26.70;48.50;;;;;;5150445;27;45241;-70
2022/08/31 00:36:53;;;;;;;2.50;2.10;;;26.70;48.60;;;;;;5150064;27;45544;-70
2022/08/31 00:39:21;;;;;;;2.50;2.30;;;26.70;49.20;;;;;;5149881;27;45472;-70
2022/08/31 00:41:48;;;;;;;2.58;2.38;;;26.70;48.70;;;;;;5149872;27;45235;-70
2022/08/31 00:44:15;;;;;;;2.63;2.33;;;26.70;48.70;;;;;;5150114;27;45290;-70
2022/08/31 00:46:42;;;;;;;2.50;2.30;;;26.70;48.80;;;;;;5150168;27;45267;-70
2022/08/31 00:49:11;;;;;;;2.38;2.17;;;26.60;48.70;;;;;;5149758;27;45202;-70
2022/08/31 00:51:40;;;;;;;2.53;2.30;;;26.60;48.70;;;;;;5149889;27;45366;-70
2022/08/31 00:54:07;;;;;;;3.30;2.33;;;26.60;48.70;;;;;;5149856;27;45315;-70
2022/08/31 00:56:34;;;;;;;2.42;2.22;;;26.60;48.80;;;;;;5149855;27;45426;-70
2022/08/31 00:59:01;;;;;;;3.03;2.50;;;26.60;48.90;;;;;;5149519;27;45264;-70
2022/08/31 01:01:29;;;;;;;2.83;2.50;;;26.60;48.80;;;;;;5149546;27;45259;-70
2022/08/31 01:03:56;;;;;;;2.97;2.17;;;26.60;48.90;;;;;;5149916;27;45248;-70
2022/08/31 01:06:24;;;;;;;2.65;2.45;;;26.50;48.90;;;;;;5149959;27;45355;-70
2022/08/31 01:08:51;;;;;;;2.95;2.65;;;26.50;48.90;;;;;;5149488;27;45185;-70
2022/08/31 01:11:18;;;;;;;2.35;2.15;;;26.50;49.00;;;;;;5149588;27;45226;-70
2022/08/31 01:13:45;;;;;;;2.15;1.95;;;26.50;48.90;;;;;;5149580;27;45261;-70
2022/08/31 01:16:15;;;;;;;2.22;2.03;;;26.50;49.00;;;;;;5149728;27;45351;-70
2022/08/31 01:18:42;;;;;;;2.40;2.20;;;26.50;49.00;;;;;;5155164;27;45437;-70
2022/08/31 01:21:14;;;;;;;2.55;2.20;;;26.50;49.10;;;;;;5170488;27;45282;-70
2022/08/31 01:23:43;;;;;;;2.70;2.28;;;26.40;49.10;;;;;;5170744;27;45268;-70
2022/08/31 01:26:10;;;;;;;2.33;2.10;;;26.40;49.10;;;;;;5170807;27;45458;-70
2022/08/31 01:28:37;;;;;;;2.67;2.33;;;26.40;49.80;;;;;;5170157;27;45235;-70
2022/08/31 01:31:05;;;;;;;2.55;2.35;;;26.40;49.20;;;;;;5157432;27;45211;-71
2022/08/31 01:33:32;;;;;;;2.50;2.30;;;26.40;49.30;;;;;;5149394;27;45176;-70
2022/08/31 01:35:59;;;;;;;2.47;2.28;;;26.40;49.30;;;;;;5146836;27;45288;-70
2022/08/31 01:38:26;;;;;;;2.40;2.20;;;26.40;49.40;;;;;;5148709;27;46416;-70
2022/08/31 01:40:55;;;;;;;2.40;2.20;;;26.40;49.40;;;;;;5149071;27;45289;-70
2022/08/31 01:43:22;;;;;;;2.55;2.08;;;26.40;49.40;;;;;;5149150;27;45222;-70
2022/08/31 01:45:49;;;;;;;2.90;2.35;;;26.40;49.40;;;;;;5149553;27;45398;-70
2022/08/31 01:48:16;;;;;;;3.08;2.33;;;26.40;49.50;;;;;;5148963;27;45351;-70
2022/08/31 01:50:43;;;;;;;2.38;2.17;;;26.30;49.50;;;;;;5148879;27;45239;-70
2022/08/31 01:53:09;;;;;;;2.58;2.03;;;26.30;49.50;;;;;;5148948;27;45139;-70
2022/08/31 01:55:36;;;;;;;2.40;2.20;;;26.30;49.60;;;;;;5149060;27;45111;-70
2022/08/31 01:58:04;;;;;;;2.58;2.38;;;26.30;50.30;;;;;;5148778;27;45493;-70
2022/08/31 02:00:31;;;;;;;2.60;2.40;;;26.30;49.60;;;;;;5148665;27;45352;-70
2022/08/31 02:03:00;;;;;;;2.53;2.22;;;26.30;49.70;;;;;;5148734;27;45329;-70
2022/08/31 02:05:27;;;;;;;2.50;2.30;;;26.30;49.70;;;;;;5148983;27;45317;-70
2022/08/31 02:07:53;;;;;;;2.03;1.90;;;26.30;49.70;;;;;;5148546;27;46588;-71
2022/08/31 02:10:20;;;;;;;2.45;2.20;;;26.20;49.80;;;;;;5147840;27;45244;-71
2022/08/31 02:12:48;;;;;;;2.20;2.08;;;26.20;49.70;;;;;;5148641;27;45240;-70
2022/08/31 02:15:16;;;;;;;2.85;2.30;;;26.20;49.80;;;;;;5148663;27;45379;-70
2022/08/31 02:17:43;;;;;;;2.42;2.28;;;26.20;49.80;;;;;;5148435;27;45180;-70
2022/08/31 02:20:10;;;;;;;2.60;2.40;;;26.20;50.40;;;;;;5167025;27;45288;-70
2022/08/31 02:22:37;;;;;;;2.45;2.25;;;26.20;49.80;;;;;;5169614;27;45290;-70
2022/08/31 02:25:06;;;;;;;3.25;2.28;;;26.10;49.80;;;;;;5169775;27;45556;-70
2022/08/31 02:27:33;;;;;;;2.40;2.20;;;26.10;50.00;;;;;;5169264;27;46388;-70
2022/08/31 02:29:59;;;;;;;2.67;2.22;;;26.10;49.80;;;;;;5165797;27;45332;-70
2022/08/31 02:32:27;;;;;;;2.58;2.05;;;26.10;50.00;;;;;;5148443;27;45244;-70
2022/08/31 02:34:54;;;;;;;3.10;2.50;;;26.10;50.50;;;;;;5148594;27;45118;-71
2022/08/31 02:37:21;;;;;;;2.30;2.20;;;26.10;49.90;;;;;;5147863;27;46380;-71
2022/08/31 02:39:48;;;;;;;2.22;2.03;;;26.10;50.00;;;;;;5148208;27;45228;-70
2022/08/31 02:42:16;;;;;;;2.65;2.33;;;26.00;50.00;;;;;;5148323;27;45311;-70
2022/08/31 02:44:43;;;;;;;2.47;2.20;;;26.00;50.00;;;;;;5148356;27;45299;-70
2022/08/31 02:47:09;;;;;;;2.53;2.33;;;26.00;50.00;;;;;;5147906;27;46416;-71
2022/08/31 02:49:38;;;;;;;2.10;2.00;;;26.00;50.00;;;;;;5147874;27;45200;-70
2022/08/31 02:52:04;;;;;;;2.30;2.10;;;26.00;50.00;;;;;;5148206;27;45516;-70
2022/08/31 02:54:31;;;;;;;2.15;2.05;;;26.00;50.10;;;;;;5148155;27;45319;-70
2022/08/31 02:56:58;;;;;;;2.55;2.35;;;26.00;50.10;;;;;;5147812;27;46564;-70
2022/08/31 02:59:25;;;;;;;2.03;1.83;;;26.00;50.10;;;;;;5147873;27;45188;-70
2022/08/31 03:01:52;;;;;;;3.85;2.38;;;26.00;50.30;;;;;;5148047;27;45246;-70
2022/08/31 03:04:19;;;;;;;2.20;2.00;;;26.00;50.30;;;;;;5148288;27;45172;-70
2022/08/31 03:06:47;;;;;;;1.80;1.70;;;26.00;50.30;;;;;;5147828;27;45301;-70
2022/08/31 03:09:14;;;;;;;2.08;1.98;;;25.90;50.20;;;;;;5147951;27;45288;-70
2022/08/31 03:11:41;;;;;;;2.75;2.10;;;26.00;50.40;;;;;;5148005;27;45337;-70
2022/08/31 03:14:08;;;;;;;2.28;2.08;;;25.90;50.20;;;;;;5147908;27;45411;-71
2022/08/31 03:16:35;;;;;;;2.15;2.00;;;25.90;50.40;;;;;;5147669;27;45491;-70
2022/08/31 03:19:01;;;;;;;2.30;2.13;;;25.90;50.40;;;;;;5156322;27;45371;-70
2022/08/31 03:21:28;;;;;;;3.65;2.35;;;25.90;50.40;;;;;;5171822;27;45333;-70
2022/08/31 03:23:57;;;;;;;2.85;2.20;;;25.90;50.40;;;;;;5172911;27;45117;-70
2022/08/31 03:26:24;;;;;;;2.20;2.00;;;25.90;50.60;;;;;;5172609;27;45474;-70
2022/08/31 03:28:50;;;;;;;2.55;2.00;;;25.80;50.30;;;;;;5172281;27;45301;-70
2022/08/31 03:31:17;;;;;;;2.20;2.08;;;25.90;50.60;;;;;;5157605;27;45256;-70
2022/08/31 03:33:44;;;;;;;2.05;1.95;;;25.90;50.50;;;;;;5151467;27;45374;-70
2022/08/31 03:36:14;;;;;;;2.30;1.85;;;25.90;50.50;;;;;;5150957;27;45623;-70
2022/08/31 03:38:41;;;;;;;1.90;1.80;;;25.90;50.50;;;;;;5150794;27;45274;-70
2022/08/31 03:41:09;;;;;;;2.05;1.85;;;25.80;50.50;;;;;;5151095;27;45288;-70
2022/08/31 03:43:36;;;;;;;2.78;2.08;;;25.90;50.70;;;;;;5151361;27;45151;-70
2022/08/31 03:46:03;;;;;;;2.40;2.20;;;25.80;51.20;;;;;;5151034;27;47295;-70
2022/08/31 03:48:30;;;;;;;1.85;1.75;;;25.80;50.70;;;;;;5151022;27;45364;-71
2022/08/31 03:50:57;;;;;;;2.10;2.00;;;25.80;50.70;;;;;;5151088;27;45302;-70
2022/08/31 03:53:24;;;;;;;1.77;1.63;;;25.80;50.80;;;;;;5151211;27;45278;-70
2022/08/31 03:55:51;;;;;;;2.08;1.98;;;25.80;50.80;;;;;;5150938;27;46396;-70
2022/08/31 03:58:19;;;;;;;2.00;1.90;;;25.80;50.90;;;;;;5151068;27;45199;-70
2022/08/31 04:00:45;;;;;;;1.80;1.70;;;25.80;50.90;;;;;;5150832;27;45334;-70
2022/08/31 04:03:12;;;;;;;3.38;1.95;;;25.70;50.80;;;;;;5151020;27;45394;-70
2022/08/31 04:05:42;;;;;;;2.00;1.75;;;25.70;50.80;;;;;;5150592;27;47621;-70
2022/08/31 04:08:09;;;;;;;2.45;1.73;;;25.70;50.80;;;;;;5150615;27;45230;-70
2022/08/31 04:10:38;;;;;;;1.98;1.88;;;25.70;50.80;;;;;;5150965;27;45385;-70
2022/08/31 04:13:05;;;;;;;2.00;1.90;;;25.70;50.80;;;;;;5151056;27;45342;-70
2022/08/31 04:15:33;;;;;;;2.20;2.00;;;25.70;50.90;;;;;;5150540;27;45185;-70
2022/08/31 04:18:00;;;;;;;2.05;1.95;;;25.70;50.70;;;;;;5150625;27;45185;-70
2022/08/31 04:20:27;;;;;;;1.77;1.67;;;25.70;50.80;;;;;;5129842;27;45224;-70
2022/08/31 04:22:54;;;;;;;2.10;2.00;;;25.70;50.70;;;;;;5129919;27;45335;-70
2022/08/31 04:25:20;;;;;;;1.70;1.60;;;25.60;50.80;;;;;;5129579;27;46344;-70
2022/08/31 04:27:49;;;;;;;1.90;1.60;;;25.60;50.80;;;;;;5129706;27;45180;-70
2022/08/31 04:30:16;;;;;;;2.30;1.90;;;25.60;50.70;;;;;;5135480;27;45219;-70
2022/08/31 04:32:44;;;;;;;1.70;1.60;;;25.60;50.90;;;;;;5150175;27;45466;-70
2022/08/31 04:35:11;;;;;;;1.95;1.83;;;25.60;50.80;;;;;;5150456;27;47544;-70
2022/08/31 04:37:40;;;;;;;1.70;1.60;;;25.60;50.90;;;;;;5150043;27;44800;-70
2022/08/31 04:40:18;;;;;;;1.67;1.58;;;25.60;50.80;;;;;;5150266;27;45292;-70
2022/08/31 04:42:45;;;;;;;1.92;1.83;;;25.60;50.90;;;;;;5150637;27;45433;-70
2022/08/31 04:45:12;;;;;;;1.90;1.80;;;25.60;50.90;;;;;;5150040;27;45274;-70
2022/08/31 04:47:40;;;;;;;1.70;1.60;;;25.60;50.80;;;;;;5150131;27;45259;-70
2022/08/31 04:50:09;;;;;;;1.60;1.50;;;25.60;51.00;;;;;;5150416;27;45316;-70
2022/08/31 04:52:36;;;;;;;1.80;1.70;;;25.60;51.00;;;;;;5150403;27;45326;-70
2022/08/31 04:55:03;;;;;;;2.10;1.83;;;25.50;50.80;;;;;;5150041;27;45214;-70
2022/08/31 04:57:30;;;;;;;2.00;1.90;;;25.50;50.80;;;;;;5150075;27;45185;-70
2022/08/31 04:59:57;;;;;;;2.15;1.95;;;25.50;50.80;;;;;;5149964;27;45177;-70
2022/08/31 05:02:24;;;;;;;2.03;1.90;;;25.50;50.80;;;;;;5150333;27;45383;-70
2022/08/31 05:04:51;;;;;;;2.00;1.80;;;25.50;50.80;;;;;;5149898;27;46677;-70
2022/08/31 05:07:19;;;;;;;1.67;1.52;;;25.50;50.80;;;;;;5149770;27;45118;-70
2022/08/31 05:09:46;;;;;;;2.38;1.90;;;25.50;50.80;;;;;;5150154;27;45247;-70
2022/08/31 05:12:13;;;;;;;1.70;1.60;;;25.50;50.70;;;;;;5150036;27;45364;-70
2022/08/31 05:14:40;;;;;;;1.80;1.70;;;25.50;50.70;;;;;;5149529;27;45328;-70
2022/08/31 05:17:08;;;;;;;1.70;1.42;;;25.50;50.70;;;;;;5149764;27;45188;-70
2022/08/31 05:19:35;;;;;;;1.80;1.70;;;25.50;50.80;;;;;;5163501;27;45216;-70
2022/08/31 05:22:02;;;;;;;2.92;1.60;;;25.50;50.80;;;;;;5170929;27;45312;-70
2022/08/31 05:24:34;;;;;;;1.90;1.80;;;25.50;50.80;;;;;;5170710;27;46495;-70
2022/08/31 05:27:01;;;;;;;1.90;1.80;;;25.40;50.90;;;;;;5170652;27;45194;-70
2022/08/31 05:29:28;;;;;;;1.80;1.70;;;25.50;50.80;;;;;;5170764;27;45424;-70
2022/08/31 05:31:55;;;;;;;1.92;1.75;;;25.40;50.90;;;;;;5150578;27;45399;-70
2022/08/31 05:34:22;;;;;;;1.73;1.63;;;25.40;51.00;;;;;;5149384;27;45479;-70
2022/08/31 05:36:51;;;;;;;1.80;1.70;;;25.40;50.90;;;;;;5149147;27;45182;-70
2022/08/31 05:39:18;;;;;;;1.80;1.70;;;25.40;50.80;;;;;;5149521;27;45289;-70
2022/08/31 05:41:46;;;;;;;1.88;1.77;;;25.40;50.90;;;;;;5149524;27;45230;-70
2022/08/31 05:44:13;;;;;;;2.03;1.70;;;25.40;51.00;;;;;;5148004;27;45216;-70
2022/08/31 05:46:40;;;;;;;1.70;1.60;;;25.40;51.10;;;;;;5146417;27;45267;-70
2022/08/31 05:49:12;;;;;;;1.60;1.50;;;25.40;51.00;;;;;;5149354;27;45276;-70
2022/08/31 05:51:39;;;;;;;1.90;1.80;;;25.30;51.00;;;;;;5149279;27;45231;-70
2022/08/31 05:54:06;;;;;;;1.80;1.70;;;25.30;51.00;;;;;;5148984;27;46437;-70
2022/08/31 05:56:33;;;;;;;1.70;1.60;;;25.40;51.20;;;;;;5148748;27;45228;-70
2022/08/31 05:59:01;;;;;;;2.08;1.90;;;25.40;51.10;;;;;;5149221;27;45281;-70
2022/08/31 06:01:29;;;;;;;1.70;1.60;;;25.30;51.10;;;;;;5148807;27;45264;-70
2022/08/31 06:03:56;;;;;;;1.60;1.50;;;25.30;51.10;;;;;;5148720;27;45461;-70
2022/08/31 06:06:23;;;;;;;3.05;1.65;;;25.30;51.10;;;;;;5148743;27;45235;-70
2022/08/31 06:08:50;;;;;;;1.73;1.60;;;25.30;51.10;;;;;;5149195;27;45287;-70
2022/08/31 06:11:18;;;;;;;1.60;1.50;;;25.30;51.10;;;;;;5149073;27;45292;-70
2022/08/31 06:13:45;;;;;;;1.92;1.73;;;25.30;51.10;;;;;;5148531;27;46624;-70
2022/08/31 06:16:13;;;;;;;1.70;1.60;;;25.30;51.70;;;;;;5148686;27;45348;-70
2022/08/31 06:18:48;;;;;;;1.80;1.70;;;25.30;51.10;;;;;;5154382;27;45405;-70
2022/08/31 06:21:15;;;;;;;1.70;1.60;;;25.30;51.10;;;;;;5169836;27;45465;-70
2022/08/31 06:23:42;;;;;;;1.80;1.60;;;25.30;51.10;;;;;;5169462;27;46421;-70
2022/08/31 06:26:11;;;;;;;1.60;1.50;;;25.30;51.00;;;;;;5169509;27;45243;-70
2022/08/31 06:28:39;;;;;;;1.92;1.83;;;25.20;51.10;;;;;;5169660;27;45321;-70
2022/08/31 06:31:10;;;;;;;1.70;1.60;;;25.20;51.00;;;;;;5156564;27;45402;-70
2022/08/31 06:33:39;;;;;;;2.05;1.95;;;25.20;51.00;;;;;;5148411;27;45213;-70
2022/08/31 06:36:09;;;;;;;2.28;1.77;;;25.20;51.00;;;;;;5148151;27;45292;-70
2022/08/31 06:38:36;;;;;;;2.13;1.92;;;25.20;51.10;;;;;;5148307;27;45305;-70
2022/08/31 06:41:11;;;;;;;1.85;1.75;;;25.20;51.00;;;;;;5148465;27;45278;-70
2022/08/31 06:43:38;;;;;;;2.30;1.73;;;25.20;51.10;;;;;;5148261;27;45300;-70
2022/08/31 06:46:05;;;;;;;2.00;1.80;;;25.20;51.00;;;;;;5147834;27;45301;-70
2022/08/31 06:48:32;;;;;;;4.15;1.70;;;25.20;51.00;;;;;;5147105;27;45659;-70
2022/08/31 06:51:00;;;;;;;7.15;2.17;;;25.20;51.30;;;;;;5144601;27;45522;-69
2022/08/31 06:53:27;;;;;;;3.55;2.15;;;25.20;52.50;;;;;;5147864;27;46413;-69
2022/08/31 06:55:54;;;;;;;2.75;2.10;;;25.20;52.40;;;;;;5150064;27;45244;-69
2022/08/31 06:58:21;;;;;;;2.72;2.28;;;25.20;52.50;;;;;;5151799;27;45338;-69
2022/08/31 07:00:48;;;;;;;3.28;2.20;;;25.20;52.90;;;;;;5151833;27;45395;-69
2022/08/31 07:03:31;;;;;;;3.45;2.42;;;25.10;52.80;;;;;;5151668;27;45216;-69
2022/08/31 07:06:02;;;;;;;4.38;2.22;;;25.10;53.00;;;;;;5143576;27;45317;-69
2022/08/31 07:08:29;;;;;;;3.22;1.83;;;25.00;53.60;;;;;;5151782;27;45352;-69
2022/08/31 07:10:56;;;;;;;2.75;1.98;;;25.00;54.00;;;;;;5151844;27;45341;-69
2022/08/31 07:13:23;;;;;;;3.13;2.30;;;25.00;54.10;;;;;;5151685;27;46362;-69
2022/08/31 07:15:49;;;;;;;1.77;1.65;;;25.00;54.20;;;;;;5151345;27;45181;-69
2022/08/31 07:18:16;;;;;;;3.47;1.90;;;25.00;54.30;;;;;;5153685;27;45252;-69
2022/08/31 07:20:43;;;;;;;2.25;2.05;;;25.00;54.40;;;;;;5172493;27;45365;-69
2022/08/31 07:23:11;;;;;;;3.08;2.15;;;25.00;54.20;;;;;;5172263;27;46385;-69
2022/08/31 07:25:39;;;;;;;5.47;1.92;;;25.00;54.00;;;;;;5172306;27;45217;-69
2022/08/31 07:28:05;;;;;;;4.45;1.98;;;25.10;54.20;;;;;;5172431;27;45223;-69
2022/08/31 07:30:41;;;;;;;3.40;2.10;;;25.00;54.50;;;;;;5164337;27;45196;-69
2022/08/31 07:33:08;;;;;;;4.15;2.20;;;25.10;54.60;;;;;;5151060;27;47576;-69
2022/08/31 07:35:35;;;;;;;2.17;2.05;;;25.00;54.30;;;;;;5151047;27;45298;-69
2022/08/31 07:43:35;;;;;;;5.95;2.65;;;25.00;54.40;;;;;;5146393;27;45356;-69
2022/08/31 07:46:02;;;;;;;5.40;2.28;;;25.10;54.00;;;;;;5150627;27;45224;-69
2022/08/31 07:48:28;;;;;;;7.47;2.92;;;25.00;54.00;;;;;;5150791;27;45306;-69
2022/08/31 07:50:55;;;;;;;8.65;2.17;;;25.00;54.20;;;;;;5150923;27;45236;-69
2022/08/31 07:53:23;;;;;;;7.65;2.10;;;25.00;54.50;;;;;;5150525;27;47352;-69
2022/08/31 07:55:54;;;;;;;4.93;2.17;;;25.10;53.90;;;;;;5150493;27;45247;-69
2022/08/31 07:58:21;;;;;;;7.85;2.20;;;25.00;53.60;;;;;;5150672;27;45291;-69
2022/08/31 08:00:49;;;;;;;3.95;2.17;;;25.00;53.40;;;;;;5150961;27;45233;-69
2022/08/31 08:03:16;;;;;;;7.43;3.17;;;25.00;53.40;;;;;;5150265;27;45214;-69
2022/08/31 08:05:42;;;;;;;8.30;2.70;;;25.10;53.40;;;;;;5149905;27;45406;-69
2022/08/31 08:08:10;;;;;;;6.25;3.35;;;25.00;53.40;;;;;;5140438;27;45351;-69
2022/08/31 08:10:39;;;;;;;6.85;3.97;;;25.10;53.40;;;;;;5150917;27;45565;-69
2022/08/31 08:13:07;;;;;;;6.68;3.30;;;25.10;54.00;;;;;;5149744;27;46394;-69
2022/08/31 08:15:36;;;;;;;7.55;3.83;;;25.10;53.50;;;;;;5150334;27;45348;-69
2022/08/31 08:18:04;;;;;;;7.13;3.33;;;25.10;54.40;;;;;;5150432;27;45354;-69
2022/08/31 08:20:30;;;;;;;5.85;3.15;;;25.10;54.30;;;;;;5171602;27;45166;-69
2022/08/31 08:22:57;;;;;;;5.18;3.17;;;25.10;54.50;;;;;;5171052;27;46402;-69
2022/08/31 08:25:24;;;;;;;8.32;3.28;;;25.10;54.10;;;;;;5171274;27;45307;-69
2022/08/31 08:27:53;;;;;;;4.90;2.65;;;25.10;53.80;;;;;;5171281;27;45267;-69
2022/08/31 08:30:21;;;;;;;4.75;2.88;;;25.10;53.70;;;;;;5164845;27;45230;-69
2022/08/31 08:32:48;;;;;;;3.53;2.80;;;25.10;53.70;;;;;;5150079;27;45227;-69
2022/08/31 08:35:15;;;;;;;6.10;2.60;;;25.10;53.60;;;;;;5149776;27;45256;-69
2022/08/31 08:37:42;;;;;;;3.33;2.50;;;25.10;53.90;;;;;;5149878;27;45274;-69
2022/08/31 08:40:10;;;;;;;3.35;2.40;;;25.10;54.00;;;;;;5150499;27;45371;-69
2022/08/31 08:42:38;;;;;;;2.60;2.40;;;25.10;54.40;;;;;;5149741;27;45567;-69
2022/08/31 08:45:05;;;;;;;2.50;2.30;;;25.10;54.10;;;;;;5149703;27;45260;-69
2022/08/31 08:47:35;;;;;;;2.25;2.05;;;25.10;53.90;;;;;;5150082;27;45235;-69
2022/08/31 08:50:05;;;;;;;2.55;1.83;;;25.10;53.90;;;;;;5149992;27;45556;-69
2022/08/31 08:52:35;;;;;;;3.83;2.22;;;25.20;53.70;;;;;;5149602;27;45653;-69
2022/08/31 08:55:05;;;;;;;2.75;2.00;;;25.20;53.70;;;;;;5149763;27;45273;-69
2022/08/31 08:57:34;;;;;;;1.95;1.75;;;25.20;53.70;;;;;;5146926;27;45252;-69
2022/08/31 09:00:05;;;;;;;2.53;1.90;;;25.20;53.50;;;;;;5150095;27;45181;-69
2022/08/31 09:02:34;;;;;;;2.03;1.83;;;25.20;54.00;;;;;;5149360;27;46529;-69
2022/08/31 09:05:24;;;;;;;1.83;1.73;;;25.20;53.40;;;;;;5149318;27;45226;-69
2022/08/31 09:08:00;;;;;;;2.45;2.25;;;25.20;53.50;;;;;;5149686;27;45182;-69
2022/08/31 09:10:30;;;;;;;2.67;2.10;;;25.20;54.00;;;;;;5149920;27;45337;-69
2022/08/31 09:13:02;;;;;;;2.35;2.00;;;25.30;53.80;;;;;;5149447;27;45260;-69
2022/08/31 09:18:53;;;;;;;3.28;1.77;;;25.30;53.80;;;;;;5156358;27;45310;-69
2022/08/31 09:21:24;;;;;;;1.98;1.70;;;25.30;53.80;;;;;;5170637;27;45246;-69
2022/08/31 09:24:00;;;;;;;2.33;1.67;;;25.30;54.00;;;;;;5170364;27;46385;-69
2022/08/31 09:26:29;;;;;;;2.22;2.03;;;25.30;54.10;;;;;;5170262;27;45380;-69
2022/08/31 09:28:56;;;;;;;3.40;1.95;;;25.30;54.40;;;;;;5170429;27;45253;-69
2022/08/31 09:31:36;;;;;;;2.50;1.95;;;25.30;54.60;;;;;;5170458;27;45458;-69
2022/08/31 09:34:05;;;;;;;1.88;1.63;;;25.30;54.20;;;;;;5169514;27;45270;-70
2022/08/31 09:36:33;;;;;;;2.17;1.83;;;25.30;54.10;;;;;;5169930;27;45231;-69
2022/08/31 09:39:17;;;;;;;2.67;1.80;;;25.30;54.10;;;;;;5169779;27;45163;-69
2022/08/31 09:41:44;;;;;;;1.70;1.50;;;25.30;54.00;;;;;;5170359;27;45131;-69
2022/08/31 09:44:29;;;;;;;2.80;1.80;;;25.40;54.00;;;;;;5166911;27;45403;-69
2022/08/31 09:46:58;;;;;;;1.67;1.58;;;25.40;54.10;;;;;;5170351;27;45183;-70
2022/08/31 09:49:27;;;;;;;1.98;1.77;;;25.40;54.20;;;;;;5170109;27;45294;-70
2022/08/31 09:51:54;;;;;;;2.35;1.73;;;25.40;54.10;;;;;;5170380;27;45357;-69
2022/08/31 09:57:08;;;;;;;1.67;1.58;;;25.40;53.80;;;;;;5170256;27;45305;-69
2022/08/31 09:59:40;;;;;;;1.60;1.50;;;25.40;53.60;;;;;;5170042;27;45179;-70
2022/08/31 10:02:10;;;;;;;2.05;1.58;;;25.40;53.60;;;;;;5169683;27;45267;-70
2022/08/31 10:04:46;;;;;;;1.73;1.63;;;25.50;53.70;;;;;;5169511;27;46687;-70
2022/08/31 10:07:18;;;;;;;1.77;1.67;;;25.50;53.60;;;;;;5169715;27;45205;-70
2022/08/31 10:09:45;;;;;;;1.50;1.40;;;25.50;53.70;;;;;;5169762;27;45405;-69
2022/08/31 10:12:15;;;;;;;1.45;1.35;;;25.50;53.60;;;;;;5169741;27;45579;-69
2022/08/31 10:14:44;;;;;;;1.70;1.55;;;25.50;53.30;;;;;;5169232;27;46674;-70
2022/08/31 10:17:13;;;;;;;1.70;1.58;;;25.50;53.50;;;;;;5169449;27;45339;-70
2022/08/31 10:19:52;;;;;;;1.73;1.63;;;25.50;53.50;;;;;;5155421;27;45180;-70
2022/08/31 10:22:24;;;;;;;1.60;1.50;;;25.50;53.30;;;;;;5147632;27;45642;-70
2022/08/31 10:25:10;;;;;;;1.48;1.38;;;25.50;53.20;;;;;;5142968;27;46450;-70
2022/08/31 10:27:39;;;;;;;1.60;1.50;;;25.50;53.40;;;;;;5127366;27;45392;-70
2022/08/31 10:30:07;;;;;;;1.70;1.60;;;25.50;53.40;;;;;;5135958;27;45307;-70
2022/08/31 10:32:36;;;;;;;6.88;2.42;;;25.60;53.30;;;;;;5169632;27;45129;-70
2022/08/31 10:35:08;;;;;;;3.90;2.50;;;25.60;53.30;;;;;;5169081;27;45273;-70
2022/08/31 10:37:49;;;;;;;7.00;3.10;;;25.60;53.30;;;;;;5169077;27;45137;-70
2022/08/31 10:40:17;;;;;;;8.50;4.10;;;25.70;53.20;;;;;;5169667;27;45347;-70
2022/08/31 10:42:49;;;;;;;5.65;3.65;;;25.70;53.10;;;;;;5169880;27;45562;-70
2022/08/31 10:45:17;;;;;;;10.98;4.40;;;25.70;54.00;;;;;;5165904;27;45662;-71
2022/08/31 10:47:45;;;;;;;8.90;3.88;;;25.70;53.50;;;;;;5145433;27;45434;-71
2022/08/31 10:50:19;;;;;;;5.30;3.33;;;25.80;53.40;;;;;;5136162;27;45481;-71
2022/08/31 10:52:50;;;;;;;5.28;3.85;;;25.80;53.00;;;;;;5130615;27;45226;-71
2022/08/31 10:55:22;;;;;;;6.28;3.45;;;25.90;52.90;;;;;;5127207;27;45378;-70
2022/08/31 10:57:51;;;;;;;6.13;3.80;;;25.90;53.40;;;;;;5127400;27;45284;-70
2022/08/31 11:03:05;;;;;;;7.13;3.65;;;26.00;53.10;;;;;;5126438;27;45349;-69
2022/08/31 11:05:36;;;;;;;10.60;4.57;;;26.00;52.70;;;;;;5127175;27;46928;-70
2022/08/31 11:08:27;;;;;;;2.80;2.60;;;26.10;53.20;;;;;;5127871;27;45410;-70
2022/08/31 11:10:54;;;;;;;4.00;2.55;;;26.00;50.90;;;;;;5148300;27;45305;-70
2022/08/31 11:13:37;;;;;;;3.03;2.50;;;26.00;50.60;;;;;;5148386;27;45449;-70
2022/08/31 11:16:17;;;;;;;2.25;2.08;;;25.90;51.30;;;;;;5147845;27;45433;-70
2022/08/31 11:19:06;;;;;;;2.60;2.40;;;25.90;50.70;;;;;;5154040;27;45323;-70
2022/08/31 11:22:10;;;;;;;3.13;2.13;;;25.90;51.60;;;;;;5158413;27;45474;-71
2022/08/31 11:24:59;;;;;;;3.45;2.53;;;25.90;52.20;;;;;;5148710;27;45148;-70
2022/08/31 11:27:26;;;;;;;2.60;2.40;;;25.80;52.70;;;;;;5147730;27;45425;-69
2022/08/31 11:29:56;;;;;;;5.22;2.70;;;25.70;53.50;;;;;;5150295;27;45322;-69
2022/08/31 11:32:25;;;;;;;2.88;2.65;;;25.70;53.10;;;;;;5168719;27;45285;-69
2022/08/31 11:34:53;;;;;;;2.70;2.00;;;25.70;53.00;;;;;;5168917;27;45435;-70
2022/08/31 11:37:51;;;;;;;2.92;2.63;;;25.60;53.20;;;;;;5168223;27;46994;-70
2022/08/31 11:40:51;;;;;;;2.50;2.30;;;25.50;52.90;;;;;;5168999;27;45202;-70
2022/08/31 11:43:42;;;;;;;2.47;2.28;;;25.50;53.10;;;;;;5172270;27;45193;-70
2022/08/31 11:46:43;;;;;;;2.85;2.60;;;25.60;52.70;;;;;;5172440;27;45278;-70
2022/08/31 11:49:37;;;;;;;2.70;2.50;;;25.60;52.10;;;;;;5172127;27;45327;-70
2022/08/31 11:52:09;;;;;;;3.13;2.63;;;25.70;52.10;;;;;;5172217;27;45188;-70
2022/08/31 11:55:00;;;;;;;4.35;2.72;;;25.70;52.20;;;;;;5172414;27;45386;-70
2022/08/31 11:57:30;;;;;;;3.97;2.30;;;25.70;52.60;;;;;;5172188;27;45491;-70
2022/08/31 11:59:57;;;;;;;3.33;3.05;;;25.70;52.30;;;;;;5171949;27;45510;-70
2022/08/31 12:02:44;;;;;;;5.18;2.80;;;25.60;52.40;;;;;;5171853;27;45212;-70
2022/08/31 12:05:11;;;;;;;2.58;2.38;;;25.60;52.40;;;;;;5172046;27;45302;-70
2022/08/31 12:07:40;;;;;;;3.20;2.90;;;25.70;52.80;;;;;;5171982;27;45619;-70
2022/08/31 12:10:36;;;;;;;3.28;2.95;;;25.70;52.60;;;;;;5171399;27;46358;-70
2022/08/31 12:13:24;;;;;;;4.40;2.72;;;25.60;52.60;;;;;;5168920;27;45341;-69
2022/08/31 12:16:16;;;;;;;3.10;2.47;;;25.70;52.40;;;;;;5171669;27;45236;-70
2022/08/31 12:18:55;;;;;;;2.95;2.75;;;25.80;52.40;;;;;;5161903;27;45582;-70
2022/08/31 12:24:17;;;;;;;4.30;2.90;;;25.90;52.40;;;;;;5168957;27;45335;-71
2022/08/31 12:26:53;;;;;;;3.42;2.80;;;26.00;52.80;;;;;;5171997;27;45280;-71
2022/08/31 12:29:25;;;;;;;2.65;2.45;;;26.10;52.50;;;;;;5172425;27;45402;-70
2022/08/31 12:32:17;;;;;;;3.83;2.55;;;26.10;52.10;;;;;;5151730;27;46388;-70
2022/08/31 12:34:47;;;;;;;4.47;2.92;;;26.20;52.20;;;;;;5150516;27;45243;-69
2022/08/31 12:37:27;;;;;;;3.40;3.10;;;26.20;52.20;;;;;;5150075;27;45300;-69
2022/08/31 12:40:09;;;;;;;3.88;2.72;;;26.10;52.00;;;;;;5142705;27;45411;-71
2022/08/31 12:42:40;;;;;;;5.20;3.10;;;26.00;51.80;;;;;;5130720;27;47365;-69
2022/08/31 12:45:08;;;;;;;3.20;2.75;;;26.00;51.80;;;;;;5148778;27;45162;-69
2022/08/31 12:47:37;;;;;;;2.65;2.45;;;26.00;51.80;;;;;;5145608;27;45525;-69
2022/08/31 12:50:10;;;;;;;3.08;2.83;;;26.00;51.10;;;;;;5129531;27;45257;-70
2022/08/31 12:52:59;;;;;;;3.35;2.95;;;26.10;51.10;;;;;;5128389;27;47330;-70
2022/08/31 12:55:34;;;;;;;4.50;3.30;;;26.10;50.30;;;;;;5133760;27;45445;-70
2022/08/31 12:58:24;;;;;;;3.22;2.92;;;26.00;50.20;;;;;;5145188;27;45281;-70
2022/08/31 13:00:51;;;;;;;4.65;2.78;;;26.00;50.40;;;;;;5136438;27;45636;-70
2022/08/31 13:03:21;;;;;;;3.53;3.00;;;26.00;50.60;;;;;;5142246;27;45675;-70
2022/08/31 13:06:04;;;;;;;3.45;2.88;;;26.00;50.20;;;;;;5149750;27;45232;-69
2022/08/31 13:08:35;;;;;;;2.88;2.67;;;26.00;49.90;;;;;;5149827;27;45278;-70
2022/08/31 13:11:13;;;;;;;3.20;2.83;;;26.00;50.00;;;;;;5149893;27;45306;-70
2022/08/31 13:13:41;;;;;;;3.50;2.80;;;26.00;50.00;;;;;;5149439;27;46353;-70
2022/08/31 13:16:08;;;;;;;3.40;3.10;;;26.00;49.90;;;;;;5149462;27;45205;-70
2022/08/31 13:18:35;;;;;;;3.10;2.80;;;26.00;49.60;;;;;;5145039;27;45302;-70
2022/08/31 13:21:04;;;;;;;3.58;2.88;;;26.00;49.60;;;;;;5129401;27;45311;-70
2022/08/31 13:23:33;;;;;;;3.17;2.88;;;26.00;49.40;;;;;;5128480;27;46629;-71